Time;durP1;ratioP1;P1;durP2;ratioP2;P2;SDS_P1;SDS_P2;PMS_P1;PMS_P2;Temp;Humidity;BMP_temperature;BMP_pressure;BME280_temperature;BME280_humidity;BME280_pressure;Samples;Min_cycle;Max_cycle;Signal;HPM_P1;HPM_P2
2023/02/20 07:34:52;;;;;;;5.40;4.17;;;5.40;99.90;;;;;;5137111;27;20282;-81
2023/02/20 07:39:11;;;;;;;3.67;3.20;;;5.60;99.90;;;;;;5137728;27;20293;-80
2023/02/20 07:41:37;;;;;;;7.63;5.57;;;5.70;99.90;;;;;;5118748;28;20425;-82
2023/02/20 07:44:03;;;;;;;6.43;4.63;;;5.80;99.90;;;;;;5137556;28;20183;-81
2023/02/20 07:46:32;;;;;;;13.67;7.13;;;5.80;99.90;;;;;;5132832;28;20220;-81
2023/02/20 07:49:03;;;;;;;17.57;9.43;;;6.00;99.90;;;;;;5135901;28;20517;-81
2023/02/20 07:51:29;;;;;;;8.70;4.53;;;6.00;99.90;;;;;;5136790;28;20175;-82
2023/02/20 07:53:54;;;;;;;9.97;5.47;;;6.20;99.90;;;;;;5136227;28;20717;-81
2023/02/20 07:56:21;;;;;;;6.87;4.13;;;6.30;99.90;;;;;;5136245;28;20202;-81
2023/02/20 07:58:47;;;;;;;14.03;9.13;;;6.50;99.90;;;;;;5137294;27;20256;-82
2023/02/20 08:01:13;;;;;;;11.30;7.00;;;6.80;99.90;;;;;;5136222;28;20181;-81
2023/02/20 08:03:39;;;;;;;6.23;4.30;;;7.50;99.90;;;;;;5137026;28;20178;-81
2023/02/20 08:06:05;;;;;;;7.23;3.10;;;8.10;99.90;;;;;;5135911;28;20197;-82
2023/02/20 08:08:31;;;;;;;12.70;8.20;;;8.90;99.90;;;;;;5136598;28;20568;-82
2023/02/20 08:10:57;;;;;;;6.40;4.10;;;9.50;99.90;;;;;;5138040;27;20671;-82
2023/02/20 08:13:23;;;;;;;3.43;2.20;;;10.00;99.90;;;;;;5137389;28;20183;-82
2023/02/20 08:15:48;;;;;;;4.93;1.70;;;10.40;99.90;;;;;;5139241;27;20242;-81
2023/02/20 08:18:14;;;;;;;4.90;2.63;;;10.10;99.90;;;;;;5136739;27;20197;-82
2023/02/20 08:20:41;;;;;;;5.40;2.37;;;10.00;99.90;;;;;;5136484;28;20212;-82
2023/02/20 08:23:16;;;;;;;3.77;1.70;;;10.00;99.90;;;;;;5137508;27;20178;-82
2023/02/20 08:25:42;;;;;;;3.57;2.00;;;9.10;99.90;;;;;;5133726;28;20277;-82
2023/02/20 08:28:08;;;;;;;12.90;7.67;;;8.40;99.90;;;;;;5134314;27;20199;-82
2023/02/20 08:30:33;;;;;;;8.57;4.03;;;8.30;99.90;;;;;;5132495;28;20171;-82
2023/02/20 08:33:01;;;;;;;3.37;2.10;;;9.20;99.90;;;;;;5133831;28;20175;-82
2023/02/20 08:35:26;;;;;;;4.67;2.23;;;10.40;99.90;;;;;;5133199;28;20195;-82
2023/02/20 08:37:52;;;;;;;9.70;5.97;;;10.80;99.90;;;;;;5133088;28;20355;-82
2023/02/20 08:40:18;;;;;;;10.40;4.97;;;10.40;99.90;;;;;;5132486;28;20178;-82
2023/02/20 08:42:43;;;;;;;7.00;4.07;;;10.40;99.90;;;;;;5132699;28;20175;-83
2023/02/20 08:45:10;;;;;;;5.30;3.10;;;11.10;99.90;;;;;;5133420;28;20297;-82
2023/02/20 08:47:36;;;;;;;3.23;2.10;;;11.20;99.90;;;;;;5133866;28;20175;-82
2023/02/20 08:50:02;;;;;;;4.73;2.63;;;10.70;99.90;;;;;;5124078;28;20304;-82
2023/02/20 08:52:28;;;;;;;18.07;9.73;;;10.10;99.90;;;;;;5120321;28;20278;-83
2023/02/20 08:54:53;;;;;;;2.70;2.13;;;9.60;99.90;;;;;;5119196;28;20234;-82
2023/02/20 08:57:19;;;;;;;10.53;6.20;;;9.40;99.90;;;;;;5119911;28;20199;-82
2023/02/20 08:59:45;;;;;;;4.00;2.70;;;9.20;99.90;;;;;;5119727;28;20171;-81
2023/02/20 09:02:20;;;;;;;6.77;4.03;;;9.20;99.90;;;;;;5119940;28;20184;-81
2023/02/20 09:04:47;;;;;;;3.63;2.10;;;9.30;99.90;;;;;;5119950;28;20591;-81
2023/02/20 09:07:13;;;;;;;4.70;2.90;;;9.20;99.90;;;;;;5119612;28;20180;-82
2023/02/20 09:09:39;;;;;;;3.90;2.43;;;9.10;99.90;;;;;;5119266;28;20198;-82
2023/02/20 09:12:06;;;;;;;17.77;11.00;;;9.80;99.90;;;;;;5120143;28;20183;-83
2023/02/20 09:14:31;;;;;;;5.73;3.43;;;10.50;99.90;;;;;;5119081;28;20536;-82
2023/02/20 09:16:57;;;;;;;5.27;2.97;;;11.10;99.90;;;;;;5120546;28;20229;-82
2023/02/20 09:19:24;;;;;;;11.87;7.80;;;11.40;99.90;;;;;;5120427;28;20177;-83
2023/02/20 09:21:50;;;;;;;4.30;2.80;;;11.70;99.90;;;;;;5121070;28;20172;-83
2023/02/20 09:24:16;;;;;;;10.83;6.70;;;11.70;99.90;;;;;;5120267;28;20178;-82
2023/02/20 09:26:42;;;;;;;7.57;5.33;;;11.90;99.90;;;;;;5128082;28;20195;-81
2023/02/20 09:29:07;;;;;;;2.97;2.30;;;12.20;99.90;;;;;;5127391;28;20220;-82
2023/02/20 09:31:33;;;;;;;4.53;2.47;;;12.40;99.90;;;;;;5119668;28;20172;-82
2023/02/20 09:33:59;;;;;;;2.83;2.20;;;12.60;99.90;;;;;;5121124;28;20174;-82
2023/02/20 09:36:26;;;;;;;3.27;2.10;;;12.80;99.90;;;;;;5119525;28;20218;-82
2023/02/20 09:38:52;;;;;;;6.27;4.63;;;12.70;99.90;;;;;;5117200;28;20222;-82
2023/02/20 09:41:40;;;;;;;3.07;2.50;;;12.70;99.90;;;;;;5117252;28;20245;-83
2023/02/20 09:44:14;;;;;;;2.47;1.93;;;13.20;99.90;;;;;;5117683;28;20181;-82
2023/02/20 09:46:47;;;;;;;6.10;3.37;;;13.00;99.90;;;;;;5117892;28;20210;-82
2023/02/20 09:49:14;;;;;;;3.63;2.27;;;13.40;99.90;;;;;;5119460;28;20168;-83
2023/02/20 09:51:49;;;;;;;3.63;2.80;;;13.60;99.90;;;;;;5120050;28;20657;-83
2023/02/20 09:54:32;;;;;;;3.40;2.23;;;13.70;99.90;;;;;;5119790;28;20242;-82
2023/02/20 09:57:01;;;;;;;2.77;2.00;;;13.80;99.90;;;;;;5119472;28;20170;-83
2023/02/20 09:59:53;;;;;;;2.10;1.90;;;13.90;99.90;;;;;;5121264;28;20255;-83
2023/02/20 10:02:30;;;;;;;2.57;1.70;;;14.30;99.90;;;;;;5119226;28;20160;-82
2023/02/20 10:05:01;;;;;;;4.57;2.93;;;14.20;99.00;;;;;;5119747;28;20253;-83
2023/02/20 10:07:39;;;;;;;1.83;1.70;;;14.20;99.40;;;;;;5120096;27;20628;-83
2023/02/20 10:10:24;;;;;;;3.50;2.10;;;13.70;99.10;;;;;;5118396;28;20183;-83
2023/02/20 10:13:08;;;;;;;4.27;2.27;;;13.90;98.00;;;;;;5117945;28;20518;-83
2023/02/20 10:16:07;;;;;;;4.13;2.00;;;13.60;98.60;;;;;;5117961;28;20195;-81
2023/02/20 10:18:51;;;;;;;8.17;5.40;;;13.40;98.00;;;;;;5119251;28;20232;-82
2023/02/20 10:21:39;;;;;;;2.97;2.10;;;13.90;98.30;;;;;;5119513;28;20674;-83
2023/02/20 10:24:35;;;;;;;3.10;1.90;;;14.20;97.20;;;;;;5117734;28;20184;-83
2023/02/20 10:27:32;;;;;;;10.70;8.60;;;14.10;95.50;;;;;;5118457;28;20173;-83
2023/02/20 10:30:00;;;;;;;4.47;4.03;;;14.30;96.10;;;;;;5093237;28;20188;-82
2023/02/20 10:32:41;;;;;;;4.23;3.07;;;14.80;95.60;;;;;;5125440;28;20184;-81
2023/02/20 10:35:19;;;;;;;2.20;1.60;;;15.00;94.70;;;;;;5122676;28;20223;-83
2023/02/20 10:37:49;;;;;;;6.30;4.67;;;14.90;94.10;;;;;;5117126;28;20210;-83
2023/02/20 10:40:44;;;;;;;3.67;2.93;;;14.90;93.80;;;;;;5118676;28;20530;-83
2023/02/20 10:43:42;;;;;;;1.63;1.17;;;15.10;95.50;;;;;;5107130;28;20665;-83
2023/02/20 10:46:35;;;;;;;2.27;1.40;;;15.40;93.00;;;;;;5118106;28;20704;-83
2023/02/20 10:49:04;;;;;;;2.90;1.40;;;15.50;90.80;;;;;;5117923;28;20263;-83
2023/02/20 10:51:37;;;;;;;3.23;2.17;;;15.40;90.90;;;;;;5117982;28;20178;-83
2023/02/20 10:54:24;;;;;;;2.27;1.97;;;16.00;91.10;;;;;;5117187;28;20178;-81
2023/02/20 10:56:55;;;;;;;3.77;1.50;;;16.00;87.40;;;;;;5118865;28;20286;-83
2023/02/20 10:59:29;;;;;;;1.90;1.30;;;15.50;87.20;;;;;;5118181;28;20247;-83
2023/02/20 11:01:56;;;;;;;3.37;2.73;;;15.60;87.20;;;;;;5117774;28;20681;-83
2023/02/20 11:04:34;;;;;;;2.03;1.57;;;16.00;88.40;;;;;;5116276;28;20172;-83
2023/02/20 11:07:14;;;;;;;2.03;1.13;;;16.10;87.30;;;;;;5120023;28;20563;-83
2023/02/20 11:09:41;;;;;;;6.87;3.40;;;16.10;85.10;;;;;;5117239;28;20340;-82
2023/02/20 11:12:17;;;;;;;2.63;1.27;;;16.20;86.20;;;;;;5116454;28;20173;-83
2023/02/20 11:14:46;;;;;;;1.40;1.30;;;16.30;83.40;;;;;;5117361;28;20161;-82
2023/02/20 11:17:18;;;;;;;1.30;1.20;;;16.90;80.90;;;;;;5116967;28;20252;-83
2023/02/20 11:19:52;;;;;;;1.90;1.33;;;17.00;81.70;;;;;;5119178;28;20172;-82
2023/02/20 11:22:38;;;;;;;2.13;1.53;;;17.30;80.60;;;;;;5118036;28;20170;-83
2023/02/20 11:25:20;;;;;;;4.00;1.80;;;17.50;77.10;;;;;;5117394;28;20202;-82
2023/02/20 11:27:49;;;;;;;3.23;2.40;;;17.30;76.60;;;;;;5115793;28;20189;-83
2023/02/20 11:30:34;;;;;;;2.00;1.00;;;17.40;75.50;;;;;;5115268;28;20784;-82
2023/02/20 11:33:08;;;;;;;1.83;1.20;;;17.30;75.00;;;;;;5115431;28;20176;-83
2023/02/20 11:35:37;;;;;;;5.63;3.27;;;17.50;73.00;;;;;;5115160;28;20281;-83
2023/02/20 11:38:21;;;;;;;10.20;5.63;;;17.30;74.00;;;;;;5115141;28;20356;-83
2023/02/20 11:41:13;;;;;;;2.73;2.00;;;17.50;74.70;;;;;;5115354;28;20197;-83
2023/02/20 11:43:47;;;;;;;4.40;1.10;;;17.80;70.00;;;;;;5110890;28;20198;-83
2023/02/20 11:46:22;;;;;;;7.60;4.00;;;17.70;70.10;;;;;;5115923;28;20278;-83
2023/02/20 11:49:05;;;;;;;2.23;1.73;;;17.70;68.40;;;;;;5117488;28;20531;-83
2023/02/20 11:51:44;;;;;;;14.57;10.37;;;17.70;67.50;;;;;;5121269;28;20181;-82
2023/02/20 11:54:17;;;;;;;20.00;13.97;;;17.20;67.90;;;;;;5120014;28;20557;-81
2023/02/20 11:56:58;;;;;;;22.30;17.43;;;17.20;69.30;;;;;;5117424;28;20211;-84
2023/02/20 11:59:40;;;;;;;2.93;2.33;;;17.00;68.30;;;;;;5119230;28;20557;-83
2023/02/20 12:02:14;;;;;;;1.17;1.03;;;16.90;68.10;;;;;;5119130;28;20173;-82
2023/02/20 12:04:58;;;;;;;1.67;1.30;;;16.90;67.40;;;;;;5120126;28;20186;-84
2023/02/20 12:07:32;;;;;;;2.13;1.20;;;17.30;66.80;;;;;;5122025;28;20185;-84
2023/02/20 12:10:16;;;;;;;1.53;0.90;;;17.90;67.80;;;;;;5120765;28;20198;-84
2023/02/20 12:12:42;;;;;;;1.43;1.10;;;18.60;65.60;;;;;;5122673;28;20169;-84
2023/02/20 12:15:14;;;;;;;3.43;1.30;;;18.90;65.30;;;;;;5118081;28;20251;-83
2023/02/20 12:18:17;;;;;;;1.80;1.00;;;18.80;63.30;;;;;;5121116;28;20231;-84
2023/02/20 12:20:56;;;;;;;3.60;1.13;;;18.60;61.80;;;;;;5119980;28;20182;-84
2023/02/20 12:23:38;;;;;;;1.20;0.80;;;18.50;64.20;;;;;;5120446;28;20172;-84
2023/02/20 12:26:29;;;;;;;1.73;1.20;;;19.00;65.20;;;;;;5122778;28;20243;-85
2023/02/20 12:29:26;;;;;;;2.40;2.20;;;19.20;63.10;;;;;;5121674;28;20235;-84
2023/02/20 12:32:33;;;;;;;2.27;2.07;;;19.10;62.30;;;;;;5123803;28;20186;-84
2023/02/20 12:35:19;;;;;;;5.07;4.30;;;18.60;61.70;;;;;;5121808;28;20245;-84
2023/02/20 12:38:20;;;;;;;5.73;3.93;;;19.40;62.10;;;;;;5110207;28;20290;-81
2023/02/20 12:41:04;;;;;;;1.30;1.13;;;19.20;61.80;;;;;;5138288;28;20224;-84
2023/02/20 12:43:38;;;;;;;2.03;1.77;;;19.00;60.20;;;;;;5120761;28;20199;-84
2023/02/20 12:46:08;;;;;;;2.03;1.63;;;19.20;61.20;;;;;;5122626;28;20650;-84
2023/02/20 12:48:48;;;;;;;1.60;1.20;;;19.40;60.50;;;;;;5123034;28;20187;-84
2023/02/20 12:51:43;;;;;;;2.20;1.20;;;19.60;59.20;;;;;;5122096;28;20220;-84
2023/02/20 12:54:11;;;;;;;1.90;1.67;;;19.90;59.90;;;;;;5121375;28;20251;-85
2023/02/20 12:56:50;;;;;;;3.03;2.73;;;19.70;59.50;;;;;;5119684;28;20223;-84
2023/02/20 12:59:23;;;;;;;2.40;1.50;;;19.70;59.80;;;;;;5121681;28;20646;-84
2023/02/20 13:01:50;;;;;;;2.30;2.10;;;19.60;58.40;;;;;;5120051;28;20177;-85
2023/02/20 13:04:24;;;;;;;2.97;1.80;;;19.60;57.10;;;;;;5122098;28;20173;-85
2023/02/20 13:07:16;;;;;;;2.20;1.70;;;19.60;57.10;;;;;;5122177;28;20206;-83
2023/02/20 13:09:53;;;;;;;1.80;1.70;;;20.30;56.00;;;;;;5124387;28;20207;-83
2023/02/20 13:12:20;;;;;;;1.47;1.00;;;20.70;56.00;;;;;;5119467;28;20185;-79
2023/02/20 13:15:03;;;;;;;2.30;2.00;;;20.90;55.80;;;;;;5119211;28;20271;-83
2023/02/20 13:17:55;;;;;;;2.17;1.23;;;20.30;54.80;;;;;;5119611;28;20205;-84
2023/02/20 13:20:25;;;;;;;4.53;2.40;;;19.10;56.70;;;;;;5092026;28;20636;-84
2023/02/20 13:23:04;;;;;;;2.20;1.97;;;18.60;56.10;;;;;;5120716;28;20215;-84
2023/02/20 13:25:30;;;;;;;2.67;1.20;;;17.50;57.20;;;;;;5119378;28;20197;-84
2023/02/20 13:28:01;;;;;;;2.90;2.07;;;16.90;58.50;;;;;;5119414;28;20666;-84
2023/02/20 13:30:27;;;;;;;4.00;1.43;;;17.30;59.30;;;;;;5121539;28;20198;-84
2023/02/20 13:33:28;;;;;;;1.27;1.10;;;17.70;58.40;;;;;;5120702;28;20188;-84
2023/02/20 13:35:56;;;;;;;3.23;1.50;;;18.90;58.30;;;;;;5060955;28;20207;-84
2023/02/20 13:38:24;;;;;;;1.90;1.37;;;19.90;56.90;;;;;;5112999;28;20276;-84
2023/02/20 13:40:56;;;;;;;2.53;1.37;;;21.00;55.00;;;;;;5121286;28;20175;-84
2023/02/20 13:43:21;;;;;;;2.47;1.10;;;21.40;52.30;;;;;;5121053;28;20172;-82
2023/02/20 13:46:13;;;;;;;1.93;0.80;;;21.50;52.50;;;;;;5119941;28;20246;-82
2023/02/20 13:48:40;;;;;;;1.20;1.03;;;21.30;52.20;;;;;;5118980;28;20210;-84
2023/02/20 13:51:16;;;;;;;0.80;0.80;;;20.80;51.90;;;;;;5119174;28;20185;-85
2023/02/20 13:54:00;;;;;;;1.03;0.90;;;20.70;51.90;;;;;;5122827;28;20163;-82
2023/02/20 13:56:40;;;;;;;3.07;1.27;;;20.50;51.70;;;;;;5122520;28;20213;-84
2023/02/20 13:59:17;;;;;;;1.90;0.80;;;20.50;51.30;;;;;;5118403;28;20243;-82
2023/02/20 14:02:20;;;;;;;1.33;0.80;;;20.50;51.10;;;;;;5117162;28;20625;-82
2023/02/20 14:04:54;;;;;;;1.43;0.80;;;21.10;51.60;;;;;;5117118;28;20173;-82
2023/02/20 14:07:39;;;;;;;0.70;0.60;;;21.40;50.00;;;;;;5117350;28;20218;-81
2023/02/20 14:10:36;;;;;;;1.20;0.70;;;21.10;49.80;;;;;;5119110;28;20631;-81
2023/02/20 14:13:14;;;;;;;1.30;0.80;;;20.90;50.70;;;;;;5120087;28;20563;-81
2023/02/20 14:15:49;;;;;;;1.20;0.80;;;21.10;51.10;;;;;;5119195;28;20195;-80
2023/02/20 14:18:23;;;;;;;1.67;0.83;;;20.90;49.70;;;;;;5118885;28;20193;-80
2023/02/20 14:20:50;;;;;;;1.47;1.10;;;19.60;50.40;;;;;;5118883;28;20156;-81
2023/02/20 14:23:26;;;;;;;1.13;0.87;;;18.00;52.50;;;;;;5119010;28;20173;-80
2023/02/20 14:26:01;;;;;;;0.77;0.70;;;17.20;53.60;;;;;;5118489;28;20188;-83
2023/02/20 14:28:32;;;;;;;2.53;0.80;;;16.50;55.10;;;;;;5117927;28;20227;-82
2023/02/20 14:31:20;;;;;;;0.90;0.80;;;15.90;55.80;;;;;;5119014;28;20237;-81
2023/02/20 14:33:47;;;;;;;2.90;0.97;;;15.70;56.70;;;;;;5116142;28;20179;-80
2023/02/20 14:36:26;;;;;;;1.10;0.90;;;15.60;57.40;;;;;;5117625;28;20194;-81
2023/02/20 14:39:28;;;;;;;1.77;1.33;;;15.50;57.90;;;;;;5115986;28;20221;-81
2023/02/20 14:42:00;;;;;;;3.50;0.90;;;15.40;58.30;;;;;;5116317;28;20169;-80
2023/02/20 14:44:28;;;;;;;0.83;0.70;;;15.20;58.50;;;;;;5117186;28;20265;-80
2023/02/20 14:46:59;;;;;;;1.67;0.90;;;15.00;58.20;;;;;;5117509;28;20189;-80
2023/02/20 14:49:27;;;;;;;1.77;0.80;;;14.90;58.60;;;;;;5118048;28;20162;-80
2023/02/20 14:52:23;;;;;;;1.60;0.80;;;14.80;59.00;;;;;;5116180;28;20176;-81
2023/02/20 14:55:01;;;;;;;1.03;0.77;;;14.70;59.10;;;;;;5117579;28;20160;-80
2023/02/20 14:57:28;;;;;;;1.40;0.70;;;14.70;59.00;;;;;;5115915;28;20340;-80
2023/02/20 15:00:15;;;;;;;1.93;1.17;;;14.70;59.70;;;;;;5116044;28;20215;-80
2023/02/20 15:02:45;;;;;;;1.63;1.00;;;14.60;59.60;;;;;;5117089;28;20175;-80
2023/02/20 15:05:17;;;;;;;1.80;0.80;;;14.60;60.00;;;;;;5116473;28;20278;-82
2023/02/20 15:07:43;;;;;;;2.07;0.80;;;14.60;60.20;;;;;;5119432;28;20160;-82
2023/02/20 15:10:35;;;;;;;1.93;1.20;;;14.50;60.90;;;;;;5118692;28;20176;-83
2023/02/20 15:13:22;;;;;;;1.33;0.70;;;14.40;61.30;;;;;;5117393;28;20572;-83
2023/02/20 15:15:53;;;;;;;1.30;0.70;;;14.30;61.50;;;;;;5117957;28;20191;-82
2023/02/20 15:18:38;;;;;;;4.33;0.73;;;14.20;61.80;;;;;;5116421;28;20199;-82
2023/02/20 15:48:15;;;;;;;1.20;0.90;;;13.60;65.60;;;;;;5139325;27;20604;-80
2023/02/20 16:07:53;;;;;;;1.40;0.90;;;13.10;68.30;;;;;;5135665;27;20711;-80
